Time;durP1;ratioP1;P1;durP2;ratioP2;P2;SDS_P1;SDS_P2;PMS_P1;PMS_P2;Temp;Humidity;BMP_temperature;BMP_pressure;BME280_temperature;BME280_humidity;BME280_pressure;Samples;Min_cycle;Max_cycle;Signal;HPM_P1;HPM_P2
2021/04/13 00:02:12;;;;;;;6.22;4.57;;;231.00;1920.00;;;;;;5031426;28;20045;-62
2021/04/13 00:04:38;;;;;;;6.60;4.70;;;231.00;1920.00;;;;;;5033681;28;20029;-66
2021/04/13 00:07:04;;;;;;;6.22;4.25;;;231.10;1920.00;;;;;;5033478;28;20400;-59
2021/04/13 00:09:34;;;;;;;6.60;4.20;;;231.00;1894.40;;;;;;5032471;28;20021;-68
2021/04/13 00:12:09;;;;;;;7.00;4.93;;;231.00;1894.40;;;;;;5027250;28;20045;-70
2021/04/13 00:14:44;;;;;;;5.40;4.28;;;231.00;1894.40;;;;;;5033055;28;20033;-66
2021/04/13 00:17:13;;;;;;;7.90;4.30;;;230.80;1894.40;;;;;;5036380;28;20531;-70
2021/04/13 00:19:58;;;;;;;5.43;4.30;;;230.70;1894.40;;;;;;5032195;28;20091;-65
2021/04/13 00:22:24;;;;;;;7.25;3.97;;;230.70;1920.00;;;;;;5033158;28;20353;-66
2021/04/13 00:24:51;;;;;;;5.75;3.85;;;230.70;1920.00;;;;;;5033732;28;20033;-70
2021/04/13 00:27:22;;;;;;;7.60;4.60;;;230.60;1920.00;;;;;;5033348;28;20025;-72
2021/04/13 00:29:48;;;;;;;6.55;4.07;;;230.60;1920.00;;;;;;5031584;28;20056;-66
2021/04/13 00:32:14;;;;;;;5.95;4.40;;;230.60;1920.00;;;;;;5032754;28;20463;-67
2021/04/13 00:37:29;;;;;;;6.47;4.50;;;230.50;1945.60;;;;;;5031761;28;20018;-70
2021/04/13 00:40:21;;;;;;;5.85;4.55;;;230.50;1945.60;;;;;;5030750;28;20029;-71
2021/04/13 00:42:47;;;;;;;7.82;4.70;;;230.50;1920.00;;;;;;5029963;28;20025;-64
2021/04/13 00:45:21;;;;;;;7.80;5.07;;;230.50;1920.00;;;;;;5031179;28;20030;-60
2021/04/13 00:47:48;;;;;;;6.57;4.80;;;230.40;1945.60;;;;;;5029962;28;20446;-62
2021/04/13 00:50:26;;;;;;;6.82;4.75;;;205.70;1945.60;;;;;;5029136;28;20025;-64
2021/04/13 00:52:55;;;;;;;6.07;4.20;;;205.60;1945.60;;;;;;5029742;28;20391;-67
2021/04/13 00:55:27;;;;;;;5.72;4.68;;;205.60;1945.60;;;;;;5025739;28;20774;-67
2021/04/13 00:58:15;;;;;;;6.60;5.18;;;205.50;1945.60;;;;;;5034902;28;20033;-65
2021/04/13 01:00:47;;;;;;;6.47;4.55;;;205.50;1945.60;;;;;;5032868;28;20025;-66
2021/04/13 01:03:16;;;;;;;7.80;4.65;;;205.60;1945.60;;;;;;5032185;28;20022;-68
2021/04/13 01:05:48;;;;;;;6.35;4.45;;;205.50;1945.60;;;;;;5030857;28;20117;-67
2021/04/13 01:08:30;;;;;;;7.57;5.18;;;205.40;1971.20;;;;;;5032710;28;20042;-61
2021/04/13 01:11:02;;;;;;;6.97;4.90;;;205.40;1971.20;;;;;;5030427;28;20487;-71
2021/04/13 01:13:48;;;;;;;6.90;4.85;;;205.40;1971.20;;;;;;5032313;28;20065;-66
2021/04/13 01:16:16;;;;;;;5.45;4.40;;;205.40;1971.20;;;;;;5030130;28;20025;-63
2021/04/13 01:18:43;;;;;;;7.15;5.10;;;205.30;1971.20;;;;;;5032861;28;20430;-61
2021/04/13 01:21:27;;;;;;;6.38;5.13;;;205.30;1996.80;;;;;;5031194;28;20071;-67
2021/04/13 01:23:57;;;;;;;6.18;4.85;;;205.30;1971.20;;;;;;5033282;28;20033;-61
2021/04/13 01:26:23;;;;;;;7.15;4.95;;;205.40;1971.20;;;;;;5034373;28;20056;-67
2021/04/13 01:28:51;;;;;;;6.47;4.95;;;205.30;1971.20;;;;;;5035783;28;20029;-63
2021/04/13 01:31:42;;;;;;;6.10;4.60;;;205.30;1971.20;;;;;;5034252;28;20065;-64
2021/04/13 01:34:09;;;;;;;6.93;4.53;;;205.30;1971.20;;;;;;5032494;28;20033;-65
2021/04/13 01:36:37;;;;;;;6.68;4.50;;;205.30;1971.20;;;;;;5034943;28;20387;-66
2021/04/13 01:39:15;;;;;;;7.43;4.80;;;205.20;1971.20;;;;;;5034499;28;20044;-66
2021/04/13 01:44:27;;;;;;;6.15;4.82;;;205.10;1971.20;;;;;;5032930;28;20040;-60
2021/04/13 01:46:54;;;;;;;7.88;4.68;;;205.10;1996.80;;;;;;5030715;28;20025;-67
2021/04/13 01:49:20;;;;;;;6.65;4.75;;;205.10;1996.80;;;;;;5034332;28;20029;-63
2021/04/13 01:51:46;;;;;;;5.90;4.40;;;205.00;1996.80;;;;;;5033834;28;20064;-62
2021/04/13 01:54:15;;;;;;;6.35;4.95;;;204.90;1996.80;;;;;;5034227;28;20503;-67
2021/04/13 01:57:12;;;;;;;6.88;4.50;;;205.00;1996.80;;;;;;5034407;28;20483;-66
2021/04/13 02:00:08;;;;;;;5.72;4.45;;;204.90;1996.80;;;;;;4990777;28;20105;-63
2021/04/13 02:02:38;;;;;;;7.25;5.00;;;204.90;1996.80;;;;;;4992481;28;20088;-69
2021/04/13 02:05:10;;;;;;;7.50;5.25;;;205.00;1996.80;;;;;;4992491;28;20026;-65
2021/04/13 02:08:05;;;;;;;6.88;4.63;;;204.80;2022.40;;;;;;4990976;28;20034;-69
2021/04/13 02:10:44;;;;;;;6.40;4.65;;;204.80;2022.40;;;;;;4992464;28;20034;-59
2021/04/13 02:13:21;;;;;;;5.80;4.70;;;204.80;2022.40;;;;;;4992442;28;20038;-67
2021/04/13 02:15:56;;;;;;;6.28;4.53;;;204.90;2022.40;;;;;;4992516;28;20456;-64
2021/04/13 02:18:43;;;;;;;6.88;4.60;;;180.10;2022.40;;;;;;4992686;28;20031;-66
2021/04/13 02:21:16;;;;;;;7.32;4.55;;;180.10;2022.40;;;;;;4992103;28;20046;-67
2021/04/13 02:23:54;;;;;;;6.28;4.60;;;180.00;2048.00;;;;;;4992457;28;20113;-63
2021/04/13 02:26:21;;;;;;;6.70;5.25;;;179.90;2048.00;;;;;;4990506;28;20023;-68
2021/04/13 02:28:48;;;;;;;6.60;4.70;;;180.00;2048.00;;;;;;4992234;28;20117;-69
2021/04/13 02:31:36;;;;;;;6.25;4.65;;;180.00;2048.00;;;;;;4989975;28;20034;-64
2021/04/13 02:34:14;;;;;;;6.28;4.70;;;180.00;2048.00;;;;;;4990023;28;20109;-64
2021/04/13 02:36:43;;;;;;;6.20;4.90;;;180.00;2048.00;;;;;;5024477;28;20029;-63
2021/04/13 02:39:14;;;;;;;5.57;4.45;;;180.00;2048.00;;;;;;5033312;28;20052;-67
2021/04/13 02:42:10;;;;;;;5.90;4.72;;;180.00;2048.00;;;;;;5033735;28;20464;-68
2021/04/13 02:44:41;;;;;;;6.90;4.68;;;180.00;2048.00;;;;;;5033072;28;20038;-60
2021/04/13 02:47:11;;;;;;;5.75;4.50;;;180.10;2048.00;;;;;;5033459;28;20032;-67
2021/04/13 02:49:42;;;;;;;6.43;4.40;;;180.00;2022.40;;;;;;5031732;28;20022;-66
2021/04/13 02:52:14;;;;;;;5.90;4.80;;;180.00;2022.40;;;;;;5033874;28;20033;-63
2021/04/13 02:54:47;;;;;;;5.75;4.40;;;180.10;2022.40;;;;;;5029570;28;20045;-64
2021/04/13 02:57:24;;;;;;;5.72;4.20;;;180.10;2022.40;;;;;;5018808;28;20096;-66
2021/04/13 02:59:51;;;;;;;6.28;4.72;;;180.10;2022.40;;;;;;5032945;28;20037;-70
2021/04/13 03:02:25;;;;;;;5.78;4.65;;;180.00;2022.40;;;;;;5034036;28;20029;-67
2021/04/13 03:04:53;;;;;;;5.85;4.40;;;180.10;2022.40;;;;;;5034015;28;20033;-68
2021/04/13 03:07:25;;;;;;;5.68;4.60;;;180.10;2022.40;;;;;;5034735;28;20024;-63
2021/04/13 03:09:54;;;;;;;6.43;5.00;;;180.10;2022.40;;;;;;5034708;28;20101;-67
2021/04/13 03:12:21;;;;;;;6.25;4.75;;;180.10;2022.40;;;;;;5034736;28;20475;-70
2021/04/13 03:14:55;;;;;;;6.43;4.78;;;204.80;1996.80;;;;;;5034435;28;20049;-67
2021/04/13 03:17:27;;;;;;;5.30;4.20;;;204.80;1996.80;;;;;;5033948;28;20037;-59
2021/04/13 03:20:01;;;;;;;6.00;4.78;;;204.80;1996.80;;;;;;5032981;28;20056;-64
2021/04/13 03:22:27;;;;;;;6.72;4.60;;;204.80;1996.80;;;;;;5030186;28;20025;-66
2021/04/13 03:24:54;;;;;;;5.43;4.40;;;204.80;1996.80;;;;;;5033012;28;20029;-65
2021/04/13 03:27:23;;;;;;;6.13;4.75;;;204.80;1996.80;;;;;;5032390;28;20487;-62
2021/04/13 03:30:07;;;;;;;6.70;4.18;;;204.90;1996.80;;;;;;5030465;28;20550;-60
2021/04/13 03:32:42;;;;;;;8.32;4.72;;;180.10;1996.80;;;;;;5031317;28;20418;-63
2021/04/13 03:35:09;;;;;;;6.47;4.60;;;204.80;1996.80;;;;;;5030623;28;20025;-62
2021/04/13 03:37:37;;;;;;;6.28;4.65;;;204.90;1996.80;;;;;;5032966;28;20359;-68
2021/04/13 03:40:07;;;;;;;6.15;4.85;;;204.90;1971.20;;;;;;5032617;28;20109;-65
2021/04/13 03:42:35;;;;;;;5.50;4.30;;;205.00;1971.20;;;;;;5031009;28;20017;-60
2021/04/13 03:45:05;;;;;;;6.68;4.90;;;205.00;1971.20;;;;;;5032289;28;20108;-66
2021/04/13 03:47:34;;;;;;;5.88;4.88;;;205.00;1971.20;;;;;;5032638;28;20034;-63
2021/04/13 03:50:08;;;;;;;5.93;4.93;;;204.90;1971.20;;;;;;5033790;28;20030;-61
2021/04/13 03:52:34;;;;;;;5.60;4.65;;;204.90;1971.20;;;;;;5033978;28;20029;-61
2021/04/13 03:55:22;;;;;;;7.03;5.47;;;204.90;1971.20;;;;;;5033847;28;20036;-62
2021/04/13 03:57:49;;;;;;;7.65;4.60;;;205.00;1971.20;;;;;;5033835;28;20032;-64
2021/04/13 04:00:21;;;;;;;6.03;5.03;;;204.90;1971.20;;;;;;5033781;28;20022;-65
2021/04/13 04:02:48;;;;;;;7.90;5.10;;;204.80;1996.80;;;;;;5033795;28;20033;-65
2021/04/13 04:05:18;;;;;;;7.68;5.60;;;204.80;1971.20;;;;;;5033610;28;20029;-67
2021/04/13 04:10:51;;;;;;;7.00;4.80;;;180.10;1996.80;;;;;;5033667;28;20025;-59
2021/04/13 04:13:16;;;;;;;7.03;5.40;;;180.00;1996.80;;;;;;5033817;28;20361;-64
2021/04/13 04:15:44;;;;;;;7.43;5.43;;;180.10;1996.80;;;;;;5033464;28;20152;-65
2021/04/13 04:18:17;;;;;;;7.55;5.60;;;204.80;1996.80;;;;;;5033465;28;20034;-65
2021/04/13 04:20:44;;;;;;;5.85;4.78;;;204.80;1971.20;;;;;;5032637;28;20084;-59
2021/04/13 04:23:23;;;;;;;7.35;4.85;;;180.10;1996.80;;;;;;5030782;28;20120;-59
2021/04/13 04:25:52;;;;;;;6.35;4.80;;;180.10;1996.80;;;;;;5031048;28;20053;-65
2021/04/13 04:28:23;;;;;;;6.32;5.05;;;180.10;1996.80;;;;;;5030812;28;20072;-59
2021/04/13 04:30:49;;;;;;;6.93;5.20;;;180.00;1996.80;;;;;;5030491;28;20057;-63
2021/04/13 04:33:36;;;;;;;7.05;5.07;;;180.00;1996.80;;;;;;5029257;28;20040;-63
2021/04/13 04:36:39;;;;;;;7.45;5.10;;;180.00;1996.80;;;;;;5030026;28;20106;-65
2021/04/13 04:39:26;;;;;;;6.85;5.07;;;179.90;1996.80;;;;;;5030554;28;20018;-60
2021/04/13 04:41:54;;;;;;;15.52;5.38;;;180.10;1996.80;;;;;;5025059;28;20026;-60
2021/04/13 04:44:28;;;;;;;6.18;4.75;;;180.00;1996.80;;;;;;5019497;28;20030;-59
2021/04/13 04:46:59;;;;;;;6.32;4.82;;;180.00;1996.80;;;;;;5016560;28;20053;-59
2021/04/13 04:49:45;;;;;;;6.65;4.97;;;180.00;1996.80;;;;;;5018534;28;20112;-61
2021/04/13 04:52:11;;;;;;;8.85;5.25;;;180.00;1996.80;;;;;;5016430;28;20052;-60
2021/04/13 04:54:36;;;;;;;7.38;5.40;;;180.10;1996.80;;;;;;5028358;28;20034;-66
2021/04/13 04:57:04;;;;;;;8.00;5.38;;;204.80;1996.80;;;;;;5016356;28;20069;-59
2021/04/13 04:59:29;;;;;;;8.57;5.20;;;204.90;1971.20;;;;;;5014595;28;20079;-63
2021/04/13 05:01:55;;;;;;;6.22;4.63;;;204.90;1971.20;;;;;;5022121;28;20041;-62
2021/04/13 05:04:21;;;;;;;8.18;5.25;;;204.80;1971.20;;;;;;5032378;28;20470;-62
2021/04/13 05:06:46;;;;;;;5.38;4.35;;;204.90;1945.60;;;;;;5023049;28;20037;-59
2021/04/13 05:09:12;;;;;;;6.25;4.20;;;204.90;1945.60;;;;;;5029301;28;20418;-65
2021/04/13 05:11:38;;;;;;;7.03;4.40;;;204.90;1945.60;;;;;;5033472;28;20360;-69
2021/04/13 05:14:03;;;;;;;5.72;4.35;;;204.90;1945.60;;;;;;5031793;28;20033;-69
2021/04/13 05:16:29;;;;;;;6.60;4.15;;;204.90;1945.60;;;;;;5033220;28;20087;-59
2021/04/13 05:18:55;;;;;;;6.18;3.90;;;205.00;1945.60;;;;;;5034851;28;20049;-67
2021/04/13 05:21:21;;;;;;;5.18;3.95;;;205.10;1920.00;;;;;;5034544;28;20475;-60
2021/04/13 05:23:47;;;;;;;9.23;5.97;;;205.20;1894.40;;;;;;5034272;28;20167;-60
2021/04/13 05:26:13;;;;;;;8.90;5.40;;;205.20;1920.00;;;;;;5028529;28;20097;-66
2021/04/13 05:28:38;;;;;;;12.93;7.47;;;205.30;1894.40;;;;;;5032990;28;20075;-69
2021/04/13 05:31:05;;;;;;;11.30;7.05;;;205.40;1868.80;;;;;;5034297;28;20152;-66
2021/04/13 05:33:31;;;;;;;8.00;4.93;;;205.60;1868.80;;;;;;5035955;28;20356;-71
2021/04/13 05:35:59;;;;;;;8.38;5.10;;;205.60;1843.20;;;;;;5035607;28;20100;-69
2021/04/13 05:38:34;;;;;;;6.60;4.55;;;205.70;1817.60;;;;;;5036145;28;20482;-70
2021/04/13 05:41:01;;;;;;;7.40;5.13;;;230.40;1817.60;;;;;;5036035;28;20029;-68
2021/04/13 05:43:28;;;;;;;5.35;4.20;;;230.50;1817.60;;;;;;5028545;28;20037;-62
2021/04/13 05:45:58;;;;;;;4.60;3.80;;;230.50;1792.00;;;;;;5017181;28;20029;-66
2021/04/13 05:48:25;;;;;;;7.85;4.70;;;230.50;1792.00;;;;;;5013746;28;20026;-65
2021/04/13 05:50:52;;;;;;;5.93;4.10;;;230.60;1792.00;;;;;;5016265;28;20040;-64
2021/04/13 05:53:18;;;;;;;7.45;4.10;;;230.50;1792.00;;;;;;5013734;28;20057;-67
2021/04/13 05:55:44;;;;;;;6.28;4.55;;;230.60;1792.00;;;;;;5014771;28;20105;-68
2021/04/13 05:58:32;;;;;;;6.68;4.50;;;230.70;1766.40;;;;;;5013426;28;20034;-59
2021/04/13 06:01:03;;;;;;;8.05;4.60;;;230.80;1766.40;;;;;;5023124;28;20547;-68
2021/04/13 06:03:29;;;;;;;4.90;3.67;;;230.70;1766.40;;;;;;5034563;28;20087;-65
2021/04/13 06:05:56;;;;;;;11.27;6.60;;;230.80;1766.40;;;;;;5019995;28;20022;-65
2021/04/13 06:08:22;;;;;;;12.18;6.45;;;230.80;1740.80;;;;;;5016966;28;20105;-64
2021/04/13 06:10:49;;;;;;;6.60;4.43;;;230.80;1740.80;;;;;;5027038;28;20033;-62
2021/04/13 06:13:16;;;;;;;8.73;5.28;;;230.90;1740.80;;;;;;5030707;28;20723;-71
2021/04/13 06:15:42;;;;;;;7.43;5.07;;;230.90;1740.80;;;;;;5031717;28;20025;-60
2021/04/13 06:18:08;;;;;;;5.53;3.60;;;231.00;1715.20;;;;;;5031631;28;20025;-66
2021/04/13 06:20:34;;;;;;;6.82;4.95;;;231.00;1715.20;;;;;;5033682;28;20502;-73
2021/04/13 06:23:00;;;;;;;7.25;4.95;;;230.90;1740.80;;;;;;5032183;28;20037;-74
2021/04/13 06:25:29;;;;;;;5.75;4.18;;;231.00;1715.20;;;;;;5029920;28;20144;-75
2021/04/13 06:27:55;;;;;;;5.78;4.15;;;230.90;1715.20;;;;;;5025887;28;20025;-64
2021/04/13 06:30:23;;;;;;;6.35;4.45;;;230.90;1715.20;;;;;;5030413;28;20195;-60
2021/04/13 06:32:49;;;;;;;5.88;4.10;;;230.80;1715.20;;;;;;5022161;28;20433;-60
2021/04/13 06:35:16;;;;;;;9.70;5.55;;;231.00;1715.20;;;;;;5031560;28;20037;-60
2021/04/13 06:37:44;;;;;;;11.80;6.90;;;231.10;1715.20;;;;;;5017096;28;20045;-59
2021/04/13 06:40:22;;;;;;;8.27;5.20;;;231.10;1715.20;;;;;;5022060;28;20084;-70
2021/04/13 06:42:58;;;;;;;5.45;4.22;;;231.20;1715.20;;;;;;5012261;28;20100;-59
2021/04/13 06:45:38;;;;;;;6.15;4.38;;;231.10;1715.20;;;;;;5021410;28;20021;-59
2021/04/13 06:48:16;;;;;;;5.50;3.90;;;231.10;1715.20;;;;;;5034334;28;20025;-58
2021/04/13 06:50:57;;;;;;;8.65;6.10;;;231.00;1740.80;;;;;;5035893;28;20025;-58
2021/04/13 06:53:23;;;;;;;9.05;7.32;;;231.10;1740.80;;;;;;5023310;28;20049;-68
2021/04/13 06:56:00;;;;;;;8.23;5.35;;;231.20;1740.80;;;;;;5030931;28;20361;-74
2021/04/13 06:58:44;;;;;;;6.22;4.45;;;231.20;1715.20;;;;;;5030667;28;20053;-62
2021/04/13 07:01:35;;;;;;;6.78;5.07;;;231.20;1715.20;;;;;;5029686;28;20519;-62
2021/04/13 07:04:03;;;;;;;8.63;4.97;;;231.30;1715.20;;;;;;5030168;28;20486;-72
2021/04/13 07:06:38;;;;;;;7.53;5.00;;;231.30;1715.20;;;;;;5031117;28;20044;-60
2021/04/13 07:09:33;;;;;;;5.63;3.90;;;231.20;1715.20;;;;;;5030362;28;20142;-63
2021/04/13 07:12:22;;;;;;;4.82;3.80;;;231.00;1715.20;;;;;;5009482;28;20159;-66
2021/04/13 07:14:53;;;;;;;7.63;4.30;;;231.00;1740.80;;;;;;5009272;28;20080;-61
2021/04/13 07:17:34;;;;;;;8.65;4.30;;;230.90;1740.80;;;;;;5016456;28;20375;-62
2021/04/13 07:20:19;;;;;;;6.45;4.63;;;230.90;1740.80;;;;;;5028532;28;20077;-60
2021/04/13 07:23:01;;;;;;;15.90;9.68;;;231.00;1740.80;;;;;;5028984;28;20033;-65
2021/04/13 07:25:33;;;;;;;12.57;8.02;;;231.00;1740.80;;;;;;5009215;28;20034;-60
2021/04/13 07:28:07;;;;;;;11.85;7.40;;;231.10;1740.80;;;;;;5020943;28;20032;-61
2021/04/13 07:30:46;;;;;;;25.57;13.13;;;231.10;1740.80;;;;;;5029705;28;20051;-63
2021/04/13 07:33:17;;;;;;;40.78;18.40;;;231.10;1715.20;;;;;;5028768;28;20120;-60
2021/04/13 07:35:43;;;;;;;19.67;11.77;;;256.50;1715.20;;;;;;5030416;28;20498;-68
2021/04/13 07:38:17;;;;;;;15.27;10.75;;;231.20;1715.20;;;;;;5030408;28;20185;-65
2021/04/13 07:40:51;;;;;;;13.43;10.40;;;231.10;1740.80;;;;;;5030953;28;20029;-62
2021/04/13 07:43:25;;;;;;;12.10;7.05;;;231.10;1740.80;;;;;;5030760;28;20290;-66
2021/04/13 07:46:12;;;;;;;9.20;6.15;;;231.10;1715.20;;;;;;5030981;28;20104;-66
2021/04/13 07:49:06;;;;;;;9.60;6.10;;;230.90;1740.80;;;;;;5010088;28;20626;-61
2021/04/13 07:51:46;;;;;;;10.73;6.20;;;230.70;1740.80;;;;;;5010166;28;20105;-66
2021/04/13 07:54:31;;;;;;;17.77;10.00;;;231.00;1740.80;;;;;;5021034;28;20042;-62
2021/04/13 07:57:23;;;;;;;11.38;7.70;;;231.00;1740.80;;;;;;5031110;28;20027;-60
2021/04/13 08:00:22;;;;;;;17.55;10.35;;;230.90;1740.80;;;;;;5030575;28;20037;-63
2021/04/13 08:02:54;;;;;;;11.15;6.68;;;231.10;1740.80;;;;;;5032177;28;20029;-71
2021/04/13 08:05:43;;;;;;;8.40;6.53;;;231.20;1715.20;;;;;;5031104;28;20049;-64
2021/04/13 08:08:27;;;;;;;11.77;7.80;;;231.20;1740.80;;;;;;5030925;28;20427;-68
2021/04/13 08:11:17;;;;;;;9.00;6.57;;;231.30;1715.20;;;;;;5028296;28;20025;-59
2021/04/13 08:13:45;;;;;;;17.92;10.80;;;256.00;1689.60;;;;;;5029542;28;20091;-68
2021/04/13 08:16:33;;;;;;;32.85;21.80;;;231.20;1715.20;;;;;;5028294;28;20021;-66
2021/04/13 08:19:27;;;;;;;18.23;10.45;;;231.30;1715.20;;;;;;5029061;28;20049;-61
2021/04/13 08:22:13;;;;;;;;;;;256.00;1715.20;;;;;;5028889;28;20060;-69
2021/04/13 08:24:46;;;;;;;34.17;17.88;;;231.30;1689.60;;;;;;5028854;28;20366;-61
2021/04/13 08:27:12;;;;;;;29.70;15.65;;;256.00;1689.60;;;;;;5027085;28;20124;-59
2021/04/13 08:29:47;;;;;;;27.88;15.18;;;231.30;1689.60;;;;;;5029741;28;20192;-70
2021/04/13 08:35:03;;;;;;;15.98;9.52;;;231.20;1689.60;;;;;;5034224;28;20434;-63
2021/04/13 08:37:51;;;;;;;34.63;16.15;;;231.30;1689.60;;;;;;5032852;28;20048;-71
2021/04/13 08:40:26;;;;;;;7.50;5.22;;;256.00;1689.60;;;;;;5032904;28;20037;-63
2021/04/13 08:42:58;;;;;;;18.15;9.60;;;231.30;1689.60;;;;;;5033491;28;20025;-59
2021/04/13 08:45:41;;;;;;;32.92;16.05;;;231.20;1689.60;;;;;;5031226;28;20037;-59
2021/04/13 08:48:24;;;;;;;39.05;17.80;;;231.10;1689.60;;;;;;5034091;28;20026;-59
2021/04/13 08:51:17;;;;;;;58.33;24.27;;;231.20;1689.60;;;;;;5032736;28;20441;-59
2021/04/13 08:53:49;;;;;;;15.80;8.02;;;231.30;1689.60;;;;;;5034709;28;20387;-59
2021/04/13 08:56:20;;;;;;;17.95;9.38;;;231.30;1689.60;;;;;;5033100;28;20025;-59
2021/04/13 08:59:02;;;;;;;14.15;8.75;;;231.30;1740.80;;;;;;5035318;28;20017;-59
2021/04/13 09:01:43;;;;;;;28.05;15.13;;;256.00;1766.40;;;;;;5034917;28;20021;-59
2021/04/13 09:04:27;;;;;;;19.23;12.10;;;256.10;1817.60;;;;;;5035068;28;20356;-61
2021/04/13 09:06:57;;;;;;;28.50;18.15;;;256.10;1868.80;;;;;;5033037;28;20029;-60
2021/04/13 09:09:41;;;;;;;32.90;18.77;;;256.10;1894.40;;;;;;5034441;28;20124;-59
2021/04/13 09:12:07;;;;;;;24.70;13.57;;;256.00;1868.80;;;;;;5034249;28;20410;-59
2021/04/13 09:14:40;;;;;;;106.93;45.30;;;256.10;1894.40;;;;;;5034780;28;20044;-59
2021/04/13 09:17:09;;;;;;;16.58;9.52;;;256.20;1894.40;;;;;;5033112;28;20024;-59
2021/04/13 09:19:48;;;;;;;67.72;27.33;;;256.10;1868.80;;;;;;5035584;28;20032;-67
2021/04/13 09:22:33;;;;;;;75.07;34.28;;;256.10;1920.00;;;;;;5034853;28;20494;-63
2021/04/13 09:25:07;;;;;;;38.75;21.38;;;256.10;1894.40;;;;;;5034604;28;20029;-59
2021/04/13 09:27:45;;;;;;;68.20;35.05;;;256.00;1920.00;;;;;;5034280;28;20034;-63
2021/04/13 09:30:20;;;;;;;13.75;8.65;;;231.30;1920.00;;;;;;5032454;28;20049;-60
2021/04/13 09:32:47;;;;;;;37.03;21.27;;;231.10;1945.60;;;;;;5032265;28;20025;-60
2021/04/13 09:35:35;;;;;;;19.60;12.68;;;231.10;1996.80;;;;;;5033784;28;20026;-60
2021/04/13 09:38:06;;;;;;;24.77;15.95;;;231.10;1996.80;;;;;;5034498;28;20379;-59
2021/04/13 09:40:41;;;;;;;60.13;37.85;;;231.20;2022.40;;;;;;5031348;28;20037;-59
2021/04/13 09:43:25;;;;;;;47.95;28.65;;;256.00;1996.80;;;;;;5032469;28;20029;-64
2021/04/13 09:46:11;;;;;;;54.90;26.93;;;231.30;2022.40;;;;;;5031300;28;20383;-60
2021/04/13 09:48:59;;;;;;;45.35;24.05;;;231.20;2022.40;;;;;;5024593;28;20382;-74
2021/04/13 09:51:58;;;;;;;54.88;30.73;;;231.30;2048.00;;;;;;5027597;28;20025;-62
2021/04/13 09:54:43;;;;;;;19.27;12.05;;;231.20;2124.80;;;;;;5014544;28;20038;-59
2021/04/13 09:57:49;;;;;;;50.55;26.73;;;231.30;2048.00;;;;;;5021768;28;20021;-59
2021/04/13 10:00:24;;;;;;;68.72;36.67;;;256.10;2073.60;;;;;;5030831;28;20021;-62
2021/04/13 10:03:27;;;;;;;25.00;14.85;;;256.10;2073.60;;;;;;5034054;28;20026;-74
2021/04/13 10:05:54;;;;;;;36.00;23.00;;;256.10;2124.80;;;;;;5035402;28;20076;-69
2021/04/13 10:08:26;;;;;;;25.48;17.67;;;256.20;2073.60;;;;;;5035609;28;20030;-61
2021/04/13 10:11:13;;;;;;;13.88;9.77;;;256.20;2124.80;;;;;;5035670;28;20052;-59
2021/04/13 10:14:03;;;;;;;17.55;11.55;;;256.20;2099.20;;;;;;5034272;28;20428;-59
2021/04/13 10:17:06;;;;;;;15.35;9.65;;;256.10;2099.20;;;;;;5030233;28;20383;-62
2021/04/13 10:19:54;;;;;;;14.85;9.57;;;256.00;2124.80;;;;;;5034064;28;20112;-62
2021/04/13 10:22:41;;;;;;;28.42;15.07;;;256.00;2124.80;;;;;;5032339;28;20033;-68
2021/04/13 10:25:43;;;;;;;19.52;12.60;;;256.10;2150.40;;;;;;5033584;28;20030;-65
2021/04/13 10:28:14;;;;;;;18.67;9.82;;;256.00;2176.00;;;;;;5031364;28;20105;-75
2021/04/13 10:31:02;;;;;;;17.83;10.05;;;231.20;2124.80;;;;;;5032291;28;21456;-66
2021/04/13 10:34:05;;;;;;;21.88;12.77;;;231.20;2150.40;;;;;;5033863;28;20073;-60
2021/04/13 10:37:10;;;;;;;15.88;10.00;;;231.10;2227.20;;;;;;5031600;28;20025;-62
2021/04/13 10:39:56;;;;;;;18.20;12.30;;;231.00;2201.60;;;;;;5031734;28;20045;-72
2021/04/13 10:42:55;;;;;;;29.95;16.88;;;230.80;2252.80;;;;;;5011441;28;20100;-68
2021/04/13 10:45:37;;;;;;;27.85;16.65;;;230.90;2252.80;;;;;;5012170;28;20084;-73
2021/04/13 10:48:18;;;;;;;19.60;13.60;;;230.90;2252.80;;;;;;5012427;28;20060;-61
2021/04/13 10:51:04;;;;;;;25.77;14.73;;;230.90;2252.80;;;;;;5012366;28;20049;-61
2021/04/13 10:54:00;;;;;;;28.83;18.83;;;230.80;2252.80;;;;;;5012025;28;20519;-66
2021/04/13 10:56:44;;;;;;;34.70;20.27;;;230.80;2252.80;;;;;;5012242;28;20148;-68
2021/04/13 10:59:34;;;;;;;31.58;19.42;;;230.80;2252.80;;;;;;4996008;28;20117;-68
2021/04/13 11:02:37;;;;;;;24.33;15.77;;;230.70;2252.80;;;;;;5011111;28;20101;-65
2021/04/13 11:05:08;;;;;;;29.27;17.80;;;230.80;2252.80;;;;;;5009391;28;20025;-68
2021/04/13 11:07:52;;;;;;;39.42;21.45;;;230.60;2252.80;;;;;;5011353;28;20034;-70
2021/04/13 11:10:46;;;;;;;70.78;36.00;;;230.60;2252.80;;;;;;5010925;28;20018;-61
2021/04/13 11:13:32;;;;;;;37.80;23.05;;;230.70;2252.80;;;;;;5011846;28;20046;-63
2021/04/13 11:16:19;;;;;;;42.65;24.35;;;230.60;2252.80;;;;;;5010918;28;20036;-61
2021/04/13 11:19:12;;;;;;;41.25;25.40;;;230.60;2252.80;;;;;;5012907;28;20395;-61
2021/04/13 11:22:05;;;;;;;61.70;35.03;;;230.50;2252.80;;;;;;5032241;28;20108;-62
2021/04/13 11:24:54;;;;;;;65.18;38.60;;;230.50;2252.80;;;;;;5031796;28;20407;-60
2021/04/13 11:27:38;;;;;;;39.47;24.83;;;230.60;2252.80;;;;;;5030900;28;20039;-60
2021/04/13 11:30:13;;;;;;;42.45;26.40;;;230.60;2252.80;;;;;;5030800;28;20041;-59
2021/04/13 11:32:42;;;;;;;25.30;16.90;;;230.50;2252.80;;;;;;5029422;28;20036;-65
2021/04/13 11:35:29;;;;;;;21.85;14.77;;;230.70;2252.80;;;;;;5032294;28;20041;-64
2021/04/13 11:38:10;;;;;;;22.05;13.27;;;230.70;2252.80;;;;;;5031346;28;20021;-59
2021/04/13 11:40:39;;;;;;;18.33;11.82;;;230.60;2252.80;;;;;;5029972;28;20374;-60
2021/04/13 11:43:12;;;;;;;17.20;11.25;;;230.50;2252.80;;;;;;5033259;28;20033;-60
2021/04/13 11:46:06;;;;;;;25.70;14.68;;;230.40;2252.80;;;;;;5032434;28;20028;-60
2021/04/13 11:49:09;;;;;;;26.30;14.85;;;230.40;2252.80;;;;;;5028732;28;20506;-60
2021/04/13 11:51:41;;;;;;;18.17;11.17;;;230.50;2252.80;;;;;;5031125;28;20423;-62
2021/04/13 11:54:39;;;;;;;35.53;17.80;;;230.40;2252.80;;;;;;5031543;28;20687;-63
2021/04/13 11:57:22;;;;;;;48.58;23.60;;;230.40;2252.80;;;;;;5032357;28;20025;-60
2021/04/13 12:00:09;;;;;;;19.77;11.90;;;230.60;2252.80;;;;;;5029818;28;20017;-62
2021/04/13 12:02:44;;;;;;;27.20;13.90;;;230.60;2252.80;;;;;;5045663;28;20492;-62
2021/04/13 12:05:45;;;;;;;31.10;16.67;;;230.60;2252.80;;;;;;5029911;28;20395;-59
2021/04/13 12:08:29;;;;;;;25.42;15.23;;;230.60;2252.80;;;;;;5027617;28;20034;-65
2021/04/13 12:11:37;;;;;;;45.83;20.48;;;230.70;2252.80;;;;;;5032628;28;20057;-63
2021/04/13 12:14:43;;;;;;;22.25;11.50;;;230.80;2252.80;;;;;;5025158;28;20045;-64
2021/04/13 12:17:41;;;;;;;22.13;13.20;;;230.70;2252.80;;;;;;4923821;29;20035;-63
2021/04/13 12:20:29;;;;;;;50.60;24.83;;;230.80;2252.80;;;;;;4916931;29;20051;-59
2021/04/13 12:23:00;;;;;;;15.00;9.93;;;230.80;2252.80;;;;;;4909306;29;20064;-60
2021/04/13 12:25:34;;;;;;;24.30;15.15;;;230.50;2252.80;;;;;;4924164;29;20482;-59
2021/04/13 12:28:34;;;;;;;25.77;16.70;;;230.60;2252.80;;;;;;4922792;29;20087;-60
2021/04/13 12:31:22;;;;;;;16.58;10.57;;;230.70;2252.80;;;;;;4867930;29;20056;-64
2021/04/13 12:33:58;;;;;;;26.83;16.38;;;230.80;2252.80;;;;;;4864722;29;20049;-61
2021/04/13 12:36:47;;;;;;;17.80;11.75;;;230.90;2252.80;;;;;;4857856;29;20034;-59
2021/04/13 12:39:49;;;;;;;16.40;10.48;;;230.90;2252.80;;;;;;4858297;29;20030;-62
2021/04/13 12:42:33;;;;;;;20.90;13.05;;;231.10;2201.60;;;;;;4858087;29;20701;-59
2021/04/13 12:45:41;;;;;;;14.40;9.48;;;231.10;2227.20;;;;;;4858327;29;20124;-59
2021/04/13 12:48:11;;;;;;;29.77;16.67;;;230.90;2227.20;;;;;;4868790;29;20033;-63
2021/04/13 12:50:40;;;;;;;19.42;13.27;;;231.00;2227.20;;;;;;4884466;29;20041;-73
2021/04/13 12:53:17;;;;;;;52.08;24.75;;;230.90;2252.80;;;;;;4894137;29;20176;-71
2021/04/13 12:55:46;;;;;;;50.40;24.20;;;230.90;2252.80;;;;;;4892956;29;20037;-61
2021/04/13 12:58:15;;;;;;;92.60;45.45;;;231.00;2252.80;;;;;;4893786;29;20514;-64
2021/04/13 13:00:50;;;;;;;44.50;25.15;;;230.90;2252.80;;;;;;4893838;29;20430;-65
2021/04/13 13:03:42;;;;;;;40.10;25.20;;;230.80;2227.20;;;;;;4878402;29;20025;-62
2021/04/13 13:06:24;;;;;;;48.72;30.48;;;230.60;2252.80;;;;;;4893937;29;20459;-59
2021/04/13 13:09:09;;;;;;;53.08;30.48;;;230.70;2252.80;;;;;;4965855;28;20400;-64
2021/04/13 13:11:37;;;;;;;52.47;27.95;;;230.70;2252.80;;;;;;4969431;28;20031;-60